createdAt,value
2023-03-10T00:00:06.737Z,94545.38
2023-03-10T00:04:19.759Z,94528.38
2023-03-10T00:08:32.267Z,94507.94
2023-03-10T00:12:45.367Z,94507.69
2023-03-10T00:17:00.276Z,94491.47
2023-03-10T00:21:25.559Z,94496.03
2023-03-10T00:25:37.997Z,94477.50
2023-03-10T00:29:52.810Z,94483.38
2023-03-10T00:34:06.207Z,94471.72
2023-03-10T00:38:18.673Z,94462.25
2023-03-10T00:42:31.115Z,94471.13
2023-03-10T00:46:43.699Z,94453.38
2023-03-10T00:50:56.282Z,94445.50
2023-03-10T00:55:09.194Z,94442.53
2023-03-10T00:59:21.716Z,94437.34
2023-03-10T01:03:44.483Z,94437.25
2023-03-10T01:07:57.227Z,94409.56
2023-03-10T01:12:10.191Z,94412.59
2023-03-10T01:16:24.018Z,94390.44
2023-03-10T01:20:36.799Z,94390.41
2023-03-10T01:24:58.807Z,94370.28
2023-03-10T01:29:11.262Z,94382.88
2023-03-10T01:33:23.712Z,94359.97
2023-03-10T01:37:36.495Z,94364.38
2023-03-10T01:41:49.027Z,94362.41
2023-03-10T01:46:04.527Z,94342.34
2023-03-10T01:50:20.028Z,94333.59
2023-03-10T01:54:41.062Z,94320.97
2023-03-10T01:58:53.790Z,94308.72
2023-03-10T02:03:25.653Z,94313.94
2023-03-10T02:07:40.959Z,94298.19
2023-03-10T02:11:54.958Z,94284.00
2023-03-10T02:16:08.153Z,94288.06
2023-03-10T02:20:42.122Z,94278.53
2023-03-10T02:25:24.389Z,94275.50
2023-03-10T02:29:58.121Z,94264.00
2023-03-10T02:34:13.862Z,94258.25
2023-03-10T02:38:29.231Z,94242.38
2023-03-10T02:42:41.975Z,94245.38
2023-03-10T02:46:54.487Z,94234.31
2023-03-10T02:51:13.511Z,94236.69
2023-03-10T02:55:26.486Z,94226.69
2023-03-10T02:59:39.130Z,94232.19
2023-03-10T03:03:51.631Z,94218.44
2023-03-10T03:08:08.644Z,94219.47
2023-03-10T03:12:21.131Z,94212.72
2023-03-10T03:16:33.593Z,94210.97
2023-03-10T03:20:46.303Z,94200.06
2023-03-10T03:24:58.769Z,94186.06
2023-03-10T03:29:14.719Z,94208.22
2023-03-10T03:33:27.215Z,94195.22
2023-03-10T03:37:41.202Z,94191.56
2023-03-10T03:41:58.149Z,94197.03
2023-03-10T03:46:10.701Z,94215.59
2023-03-10T03:50:23.958Z,94217.91
2023-03-10T03:54:36.434Z,94242.25
2023-03-10T03:58:48.960Z,94279.66
2023-03-10T04:03:11.634Z,94279.19
2023-03-10T04:07:24.104Z,94277.97
2023-03-10T04:11:36.795Z,94281.09
2023-03-10T04:15:49.305Z,94254.25
2023-03-10T04:20:07.525Z,94312.06
2023-03-10T04:24:20.391Z,94314.69
2023-03-10T04:28:32.834Z,94293.63
2023-03-10T04:32:47.934Z,94302.78
2023-03-10T04:37:01.620Z,94284.25
2023-03-10T04:41:14.167Z,94275.16
2023-03-10T04:45:26.713Z,94298.38
2023-03-10T04:49:39.838Z,94280.53
2023-03-10T04:53:52.569Z,94288.72
2023-03-10T04:58:05.034Z,94290.75
2023-03-10T05:02:27.479Z,94277.19
2023-03-10T05:06:39.929Z,94259.28
2023-03-10T05:10:52.365Z,94290.94
2023-03-10T05:15:09.249Z,94284.47
2023-03-10T05:19:21.685Z,94285.72
2023-03-10T05:23:34.106Z,94294.00
2023-03-10T05:27:46.586Z,94296.25
2023-03-10T05:31:59.024Z,94299.25
2023-03-10T05:36:14.901Z,94291.47
2023-03-10T05:40:37.467Z,94297.47
2023-03-10T05:44:49.952Z,94296.97
2023-03-10T05:49:02.615Z,94285.25
2023-03-10T05:53:15.153Z,94289.97
2023-03-10T05:57:28.013Z,94300.75
2023-03-10T06:01:40.975Z,94287.75
2023-03-10T06:05:54.297Z,94281.97
2023-03-10T06:10:08.332Z,94277.72
2023-03-10T06:14:20.990Z,94270.94
2023-03-10T06:18:34.939Z,94268.69
2023-03-10T06:22:47.419Z,94258.69
2023-03-10T06:26:59.874Z,94255.44
2023-03-10T06:31:19.978Z,94241.91
2023-03-10T06:35:33.247Z,94231.66
2023-03-10T06:39:48.819Z,94228.41
2023-03-10T06:44:01.410Z,94221.88
2023-03-10T06:48:14.981Z,94211.38
2023-03-10T06:52:28.503Z,94202.59
2023-03-10T06:56:41.029Z,94209.31
2023-03-10T07:00:53.635Z,94192.81
2023-03-10T07:05:08.333Z,94202.00
2023-03-10T07:09:20.886Z,94216.50
2023-03-10T07:13:34.423Z,94199.84
2023-03-10T07:17:47.533Z,94182.91
2023-03-10T07:22:11.367Z,94196.25
2023-03-10T07:26:23.909Z,94188.78
2023-03-10T07:30:37.421Z,94191.81
2023-03-10T07:34:52.437Z,94185.53
2023-03-10T07:39:04.916Z,94192.53
2023-03-10T07:43:17.434Z,94195.53
2023-03-10T07:47:30.392Z,94194.84
2023-03-10T07:51:42.825Z,94195.53
2023-03-10T07:56:10.921Z,94193.63
2023-03-10T08:00:23.936Z,94163.34
2023-03-10T08:04:36.508Z,94171.94
2023-03-10T08:08:49.294Z,94175.69
2023-03-10T08:13:01.748Z,94162.09
2023-03-10T08:17:31.229Z,94145.66
2023-03-10T08:21:44.549Z,94150.25
2023-03-10T08:26:05.456Z,94141.44
2023-03-10T08:30:18.308Z,94139.31
2023-03-10T08:34:36.826Z,94128.28
2023-03-10T08:38:51.075Z,94123.00
2023-03-10T08:43:04.080Z,94119.13
2023-03-10T08:47:16.748Z,94126.28
2023-03-10T08:51:40.140Z,94125.47
2023-03-10T08:55:52.813Z,94130.94
2023-03-10T09:00:07.212Z,94143.38
2023-03-10T09:04:19.823Z,94136.50
2023-03-10T09:08:42.932Z,94135.72
2023-03-10T09:13:13.734Z,94130.22
2023-03-10T09:17:33.844Z,94135.31
2023-03-10T09:21:46.321Z,94139.00
2023-03-10T09:25:58.898Z,94142.78
2023-03-10T09:30:12.380Z,94136.78
2023-03-10T09:34:27.886Z,94135.25
2023-03-10T09:38:41.248Z,94146.03
2023-03-10T09:43:05.974Z,94155.56
2023-03-10T09:47:42.948Z,94156.66
2023-03-10T09:51:56.395Z,94171.81
2023-03-10T09:56:30.769Z,94166.06
2023-03-10T10:00:45.818Z,94173.00
2023-03-10T10:05:03.997Z,94173.53
2023-03-10T10:09:55.387Z,94202.13
2023-03-10T10:14:22.380Z,94226.41
2023-03-10T10:18:44.264Z,94243.88
2023-03-10T10:22:56.997Z,94266.34
2023-03-10T10:27:09.429Z,94265.38
2023-03-10T10:31:29.353Z,94269.25
2023-03-10T10:36:06.580Z,94276.50
2023-03-10T10:40:26.378Z,94288.41
2023-03-10T10:44:44.198Z,94290.59
2023-03-10T10:49:04.833Z,94283.66
2023-03-10T10:53:25.433Z,94272.47
2023-03-10T10:57:39.534Z,94268.19
2023-03-10T11:02:11.441Z,94240.16
2023-03-10T11:06:35.673Z,94235.59
2023-03-10T11:11:00.328Z,94219.22
2023-03-10T11:15:54.391Z,94209.88
2023-03-10T11:20:29.712Z,94225.16
2023-03-10T11:25:13.110Z,94218.28
2023-03-10T11:29:52.824Z,94211.72
2023-03-10T11:34:35.049Z,94196.34
2023-03-10T11:38:50.851Z,94188.84
2023-03-10T11:43:28.700Z,94178.31
2023-03-10T11:48:11.254Z,94154.09
2023-03-10T11:52:27.312Z,94152.56
2023-03-10T11:56:40.917Z,94124.19
2023-03-10T12:00:55.506Z,94136.41
2023-03-10T12:05:26.749Z,94131.78
2023-03-10T12:09:50.527Z,94128.81
2023-03-10T12:14:03.565Z,94120.72
2023-03-10T12:18:16.278Z,94104.78
2023-03-10T12:22:44.156Z,94105.22
2023-03-10T12:27:04.156Z,94092.91
2023-03-10T12:31:38.598Z,94110.59
2023-03-10T12:35:55.897Z,94122.75
2023-03-10T12:40:50.647Z,94110.50
2023-03-10T12:45:31.576Z,94113.81
2023-03-10T12:50:23.588Z,94126.81
2023-03-10T12:55:03.738Z,94106.56
2023-03-10T12:59:47.163Z,94112.78
2023-03-10T13:03:59.971Z,94103.53
2023-03-10T13:08:35.384Z,94105.06
2023-03-10T13:12:52.059Z,94109.72
2023-03-10T13:17:05.841Z,94100.09
2023-03-10T13:21:38.599Z,94128.31
2023-03-10T13:26:02.630Z,94124.53
2023-03-10T13:30:25.088Z,94130.13
2023-03-10T13:34:37.607Z,94138.97
2023-03-10T13:38:50.922Z,94132.50
2023-03-10T13:43:06.828Z,94122.47
2023-03-10T13:47:26.473Z,94159.31
2023-03-10T13:51:39.445Z,94137.88
2023-03-10T13:55:51.894Z,94141.44
2023-03-10T14:00:12.272Z,94143.53
2023-03-10T14:04:46.417Z,94131.88
2023-03-10T14:09:18.431Z,94142.41
2023-03-10T14:13:43.162Z,94152.59
2023-03-10T14:18:07.712Z,94192.31
2023-03-10T14:22:36.525Z,94186.59
2023-03-10T14:26:48.976Z,94151.59
2023-03-10T14:31:03.675Z,94170.84
2023-03-10T14:35:18.595Z,94167.03
2023-03-10T14:39:31.184Z,94169.00
2023-03-10T14:43:44.259Z,94145.53
2023-03-10T14:47:59.834Z,94160.97
2023-03-10T14:52:18.425Z,94171.72
2023-03-10T14:56:31.772Z,94141.97
2023-03-10T15:00:44.303Z,94188.00
2023-03-10T15:04:58.143Z,94188.66
2023-03-10T15:09:11.555Z,94196.94
2023-03-10T15:13:31.697Z,94205.41
2023-03-10T15:17:44.364Z,94207.78
2023-03-10T15:21:56.931Z,94209.47
2023-03-10T15:26:13.823Z,94213.41
2023-03-10T15:30:34.459Z,94219.09
2023-03-10T15:34:46.896Z,94213.13
2023-03-10T15:39:12.425Z,94208.25
2023-03-10T15:43:26.675Z,94224.59
2023-03-10T15:47:39.207Z,94235.66
2023-03-10T15:51:51.638Z,94231.91
2023-03-10T15:56:09.337Z,94240.66
2023-03-10T16:00:25.372Z,94237.41
2023-03-10T16:04:37.959Z,94239.88
2023-03-10T16:08:50.461Z,94250.56
2023-03-10T16:13:03.226Z,94251.78
2023-03-10T16:17:15.747Z,94260.25
2023-03-10T16:21:28.649Z,94267.28
2023-03-10T16:25:41.832Z,94251.78
2023-03-10T16:29:54.256Z,94262.03
2023-03-10T16:34:07.544Z,94256.63
2023-03-10T16:38:19.976Z,94248.88
2023-03-10T16:42:37.172Z,94271.19
2023-03-10T16:46:49.628Z,94272.19
2023-03-10T16:51:20.846Z,94278.69
2023-03-10T16:55:34.788Z,94255.94
2023-03-10T16:59:48.287Z,94285.22
2023-03-10T17:04:00.946Z,94283.69
2023-03-10T17:08:14.526Z,94265.44
2023-03-10T17:12:26.959Z,94255.41
2023-03-10T17:16:39.627Z,94270.94
2023-03-10T17:20:52.452Z,94293.22
2023-03-10T17:25:05.493Z,94312.22
2023-03-10T17:29:18.284Z,94309.69
2023-03-10T17:33:30.761Z,94310.44
2023-03-10T17:37:53.687Z,94342.44
2023-03-10T17:42:06.263Z,94339.44
2023-03-10T17:46:22.919Z,94356.19
2023-03-10T17:50:35.747Z,94370.97
2023-03-10T17:54:48.227Z,94361.13
2023-03-10T17:59:00.706Z,94383.81
2023-03-10T18:03:23.697Z,94376.59
2023-03-10T18:07:36.269Z,94362.28
2023-03-10T18:11:49.186Z,94378.25
2023-03-10T18:16:01.786Z,94389.53
2023-03-10T18:20:15.781Z,94391.66
2023-03-10T18:24:28.192Z,94370.16
2023-03-10T18:28:41.085Z,94390.47
2023-03-10T18:36:56.997Z,94404.66
2023-03-10T18:41:09.562Z,94406.69
2023-03-10T18:45:22.220Z,94419.22
2023-03-10T18:49:34.730Z,94416.94
2023-03-10T18:53:47.204Z,94503.16
2023-03-10T18:57:59.728Z,94446.44
2023-03-10T19:02:16.362Z,94479.50
2023-03-10T19:06:34.631Z,94439.16
2023-03-10T19:10:58.674Z,94416.13
2023-03-10T19:15:16.669Z,94424.03
2023-03-10T19:19:29.336Z,94421.88
2023-03-10T19:23:46.461Z,94444.06
2023-03-10T19:27:58.904Z,94440.66
2023-03-10T19:32:11.475Z,94404.41
2023-03-10T19:36:27.201Z,94410.38
2023-03-10T19:40:39.900Z,94405.66
2023-03-10T19:44:53.396Z,94399.25
2023-03-10T19:49:07.515Z,94416.91
2023-03-10T19:53:22.125Z,94401.31
2023-03-10T19:57:37.066Z,94413.59
2023-03-10T20:01:49.835Z,94419.41
2023-03-10T20:06:02.414Z,94412.22
2023-03-10T20:10:17.482Z,94426.03
2023-03-10T20:14:30.197Z,94418.28
2023-03-10T20:18:42.844Z,94377.38
2023-03-10T20:22:55.358Z,94371.00
2023-03-10T20:27:07.858Z,94373.59
2023-03-10T20:31:23.957Z,94386.56
2023-03-10T20:35:46.637Z,94410.75
2023-03-10T20:39:59.173Z,94409.66
2023-03-10T20:44:19.902Z,94428.16
2023-03-10T20:48:32.490Z,94412.94
2023-03-10T20:52:45.519Z,94434.78
2023-03-10T20:56:57.931Z,94427.06
2023-03-10T21:01:22.255Z,94451.22
2023-03-10T21:05:45.432Z,94463.00
2023-03-10T21:09:58.843Z,94458.69
2023-03-10T21:14:17.726Z,94497.22
2023-03-10T21:18:30.834Z,94533.47
2023-03-10T21:22:43.821Z,94536.31
2023-03-10T21:26:56.712Z,94517.53
2023-03-10T21:31:10.031Z,94539.53
2023-03-10T21:35:24.163Z,94586.88
2023-03-10T21:39:36.668Z,94581.41
2023-03-10T21:43:49.291Z,94586.59
2023-03-10T21:48:01.919Z,94588.19
2023-03-10T21:52:15.176Z,94583.81
2023-03-10T21:56:33.006Z,94611.97
2023-03-10T22:00:56.361Z,94597.84
2023-03-10T22:05:12.198Z,94629.88
2023-03-10T22:09:24.677Z,94630.25
2023-03-10T22:13:38.773Z,94655.09
2023-03-10T22:17:51.719Z,94683.75
2023-03-10T22:22:04.199Z,94703.00
2023-03-10T22:26:16.635Z,94679.63
2023-03-10T22:30:30.415Z,94722.09
2023-03-10T22:34:42.962Z,94762.13
2023-03-10T22:38:55.409Z,94735.69
2023-03-10T22:43:07.866Z,94736.13
2023-03-10T22:47:20.415Z,94723.50
2023-03-10T22:51:32.888Z,94735.59
2023-03-10T22:55:47.201Z,94729.56
2023-03-10T22:59:59.640Z,94757.19
2023-03-10T23:04:12.086Z,94739.59
2023-03-10T23:08:24.934Z,94759.34
2023-03-10T23:12:40.020Z,94789.66
2023-03-10T23:16:52.467Z,94819.09
2023-03-10T23:21:05.505Z,94811.78
2023-03-10T23:25:31.733Z,94840.56
2023-03-10T23:29:44.284Z,94861.31
2023-03-10T23:33:56.764Z,94839.59
2023-03-10T23:38:09.585Z,94866.63
2023-03-10T23:42:22.032Z,94868.19
2023-03-10T23:46:36.175Z,94866.78
2023-03-10T23:50:49.274Z,94868.75
2023-03-10T23:55:01.870Z,94897.75
2023-03-10T23:59:14.328Z,94850.16
